Time;durP1;ratioP1;P1;durP2;ratioP2;P2;SDS_P1;SDS_P2;PMS_P1;PMS_P2;Temp;Humidity;BMP_temperature;BMP_pressure;BME280_temperature;BME280_humidity;BME280_pressure;Samples;Min_cycle;Max_cycle;Signal;HPM_P1;HPM_P2
2023/05/06 00:00:21;;;;;;;5.77;5.27;;;;;;;;;;5006840;28;20489;-59
2023/05/06 00:02:50;;;;;;;5.53;5.33;;;;;;;;;;4994170;28;20820;-60
2023/05/06 00:05:19;;;;;;;5.87;5.47;;;;;;;;;;4994276;28;20441;-60
2023/05/06 00:07:45;;;;;;;12.10;6.03;;;;;;;;;;4994446;28;20908;-60
2023/05/06 00:10:11;;;;;;;6.40;5.87;;;;;;;;;;4993878;28;20420;-60
2023/05/06 00:12:37;;;;;;;5.63;5.40;;;;;;;;;;4994054;28;20423;-61
2023/05/06 00:15:04;;;;;;;6.17;5.77;;;;;;;;;;4993850;28;20428;-60
2023/05/06 00:17:30;;;;;;;7.10;6.60;;;;;;;;;;4994048;28;20477;-60
2023/05/06 00:19:57;;;;;;;6.27;5.97;;;;;;;;;;4993808;28;20471;-60
2023/05/06 00:22:23;;;;;;;7.07;6.47;;;;;;;;;;4993777;28;20970;-60
2023/05/06 00:24:51;;;;;;;6.07;5.83;;;;;;;;;;4994044;28;21029;-60
2023/05/06 00:27:19;;;;;;;6.97;6.43;;;;;;;;;;4993844;28;20948;-60
2023/05/06 00:29:45;;;;;;;6.20;6.00;;;;;;;;;;4993819;28;20938;-60
2023/05/06 00:32:11;;;;;;;7.20;6.73;;;;;;;;;;4993546;28;20436;-60
2023/05/06 00:34:39;;;;;;;5.90;5.47;;;;;;;;;;4993777;28;20777;-60
2023/05/06 00:37:05;;;;;;;5.87;5.47;;;;;;;;;;4992532;28;20483;-60
2023/05/06 00:39:33;;;;;;;11.00;5.80;;;;;;;;;;4993716;28;20823;-60
2023/05/06 00:42:01;;;;;;;5.80;5.30;;;;;;;;;;4992219;28;20506;-60
2023/05/06 00:44:27;;;;;;;6.43;5.77;;;;;;;;;;4993771;28;20471;-60
2023/05/06 00:46:53;;;;;;;6.90;6.43;;;;;;;;;;4993679;28;20692;-60
2023/05/06 00:49:21;;;;;;;5.70;5.33;;;;;;;;;;4993209;28;20409;-60
2023/05/06 00:51:48;;;;;;;6.43;5.17;;;;;;;;;;4993206;28;20449;-60
2023/05/06 00:54:14;;;;;;;5.10;5.00;;;;;;;;;;4993493;28;20412;-60
2023/05/06 00:56:40;;;;;;;6.40;5.83;;;;;;;;;;4993456;28;20464;-60
2023/05/06 00:59:07;;;;;;;5.40;4.87;;;;;;;;;;4993341;28;20451;-60
2023/05/06 01:01:33;;;;;;;5.97;5.67;;;;;;;;;;4992937;28;20552;-62
2023/05/06 01:04:00;;;;;;;6.50;6.00;;;;;;;;;;4992032;28;20580;-60
2023/05/06 01:06:31;;;;;;;6.10;5.73;;;;;;;;;;4993367;28;20519;-60
2023/05/06 01:09:00;;;;;;;6.57;6.17;;;;;;;;;;4993256;28;20453;-60
2023/05/06 01:11:32;;;;;;;6.70;6.30;;;;;;;;;;4992954;28;20780;-60
2023/05/06 01:13:58;;;;;;;8.90;6.27;;;;;;;;;;4993047;28;20433;-60
2023/05/06 01:16:25;;;;;;;6.40;6.10;;;;;;;;;;4992900;28;20502;-60
2023/05/06 01:18:52;;;;;;;6.57;6.07;;;;;;;;;;4992162;28;20420;-60
2023/05/06 01:21:18;;;;;;;6.87;6.20;;;;;;;;;;4992837;28;20550;-60
2023/05/06 01:23:54;;;;;;;6.33;5.83;;;;;;;;;;4993164;28;20859;-60
2023/05/06 01:26:21;;;;;;;5.47;5.30;;;;;;;;;;4991601;28;20428;-60
2023/05/06 01:28:47;;;;;;;5.30;5.10;;;;;;;;;;4993229;28;20464;-60
2023/05/06 01:31:16;;;;;;;11.20;6.00;;;;;;;;;;4993013;28;20531;-60
2023/05/06 01:33:52;;;;;;;5.50;5.10;;;;;;;;;;4993031;28;20417;-60
2023/05/06 01:36:22;;;;;;;5.63;5.40;;;;;;;;;;4992851;28;20953;-60
2023/05/06 01:38:51;;;;;;;8.67;5.13;;;;;;;;;;4993272;28;20761;-60
2023/05/06 01:41:18;;;;;;;6.97;6.40;;;;;;;;;;4996603;28;20442;-60
2023/05/06 01:43:45;;;;;;;6.37;6.03;;;;;;;;;;4997183;28;20409;-60
2023/05/06 01:46:11;;;;;;;5.63;5.43;;;;;;;;;;4996913;28;20492;-60
2023/05/06 01:48:40;;;;;;;18.50;5.90;;;;;;;;;;4996364;28;20420;-60
2023/05/06 01:51:06;;;;;;;5.67;5.07;;;;;;;;;;4996654;28;20447;-60
2023/05/06 01:53:35;;;;;;;6.27;5.70;;;;;;;;;;4996719;28;20476;-60
2023/05/06 01:56:01;;;;;;;5.67;5.13;;;;;;;;;;4996699;28;20474;-60
2023/05/06 01:58:26;;;;;;;5.90;5.30;;;;;;;;;;4996873;28;20468;-60
2023/05/06 02:00:52;;;;;;;5.80;5.30;;;;;;;;;;4996708;28;20519;-60
2023/05/06 02:03:18;;;;;;;5.70;5.50;;;;;;;;;;4996131;28;21012;-60
2023/05/06 02:05:44;;;;;;;7.17;6.47;;;;;;;;;;4996493;28;20526;-60
2023/05/06 02:08:11;;;;;;;6.60;6.23;;;;;;;;;;4996292;28;20444;-60
2023/05/06 02:10:37;;;;;;;6.67;6.20;;;;;;;;;;4996345;28;20468;-60
2023/05/06 02:13:05;;;;;;;6.10;5.57;;;;;;;;;;4996411;28;20823;-60
2023/05/06 02:15:31;;;;;;;6.33;5.50;;;;;;;;;;4996506;28;20438;-60
2023/05/06 02:17:58;;;;;;;5.10;4.80;;;;;;;;;;4996360;28;20515;-60
2023/05/06 02:20:24;;;;;;;6.27;5.37;;;;;;;;;;4996384;28;20496;-60
2023/05/06 02:22:50;;;;;;;6.23;5.80;;;;;;;;;;4996185;28;20491;-60
2023/05/06 02:25:16;;;;;;;5.30;4.90;;;;;;;;;;4996274;28;20416;-60
2023/05/06 02:27:43;;;;;;;6.57;4.43;;;;;;;;;;4996101;28;20883;-60
2023/05/06 02:30:13;;;;;;;6.23;5.83;;;;;;;;;;4995947;28;20426;-60
2023/05/06 02:32:40;;;;;;;6.00;5.40;;;;;;;;;;4996006;28;20450;-60
2023/05/06 02:35:06;;;;;;;5.37;4.90;;;;;;;;;;4996076;28;20434;-60
2023/05/06 02:37:32;;;;;;;5.03;4.70;;;;;;;;;;4995913;28;20478;-60
2023/05/06 02:39:58;;;;;;;6.00;5.50;;;;;;;;;;4996155;28;20395;-60
2023/05/06 02:42:24;;;;;;;5.50;5.30;;;;;;;;;;4995772;28;20438;-60
2023/05/06 02:44:50;;;;;;;5.63;5.13;;;;;;;;;;4995662;28;20495;-60
2023/05/06 02:47:16;;;;;;;5.23;4.97;;;;;;;;;;4995863;28;20472;-60
2023/05/06 02:49:42;;;;;;;5.57;5.03;;;;;;;;;;4995692;28;20428;-60
2023/05/06 02:52:08;;;;;;;5.70;5.50;;;;;;;;;;4994450;28;20492;-60
2023/05/06 02:54:34;;;;;;;6.83;5.20;;;;;;;;;;4995553;28;20423;-60
2023/05/06 02:57:00;;;;;;;8.47;7.50;;;;;;;;;;4995700;28;20968;-60
2023/05/06 02:59:26;;;;;;;17.30;12.03;;;;;;;;;;4995671;28;20899;-60
2023/05/06 03:01:55;;;;;;;14.43;12.87;;;;;;;;;;4995965;28;20440;-59
2023/05/06 03:04:21;;;;;;;42.47;22.97;;;;;;;;;;4996020;28;20407;-59
2023/05/06 03:06:47;;;;;;;50.43;28.23;;;;;;;;;;4995871;28;20452;-59
2023/05/06 03:09:16;;;;;;;47.07;23.90;;;;;;;;;;4995649;28;20739;-59
2023/05/06 03:11:42;;;;;;;52.07;25.77;;;;;;;;;;4995376;28;20429;-60
2023/05/06 03:14:08;;;;;;;72.77;28.00;;;;;;;;;;4995358;28;20425;-60
2023/05/06 03:16:34;;;;;;;42.80;26.10;;;;;;;;;;4995380;28;20416;-59
2023/05/06 03:19:02;;;;;;;59.17;26.03;;;;;;;;;;4995552;28;20450;-60
2023/05/06 03:21:28;;;;;;;38.57;24.87;;;;;;;;;;4995206;28;20412;-60
2023/05/06 03:23:54;;;;;;;36.53;24.10;;;;;;;;;;4995230;28;20446;-62
2023/05/06 03:26:20;;;;;;;55.83;26.80;;;;;;;;;;4995401;28;20449;-60
2023/05/06 03:28:46;;;;;;;39.07;24.60;;;;;;;;;;4995111;28;20490;-60
2023/05/06 03:31:12;;;;;;;53.57;27.60;;;;;;;;;;4995138;28;20485;-60
2023/05/06 03:33:41;;;;;;;43.17;26.37;;;;;;;;;;4994750;28;20443;-60
2023/05/06 03:36:07;;;;;;;40.63;25.80;;;;;;;;;;4994795;28;20426;-60
2023/05/06 03:38:33;;;;;;;43.33;26.90;;;;;;;;;;4994579;28;20538;-60
2023/05/06 03:40:59;;;;;;;38.13;25.03;;;;;;;;;;4994833;28;20429;-61
2023/05/06 03:43:25;;;;;;;36.73;24.67;;;;;;;;;;4994630;28;20776;-59
2023/05/06 03:45:51;;;;;;;37.77;25.40;;;;;;;;;;4994411;28;20428;-60
2023/05/06 03:48:17;;;;;;;36.80;23.83;;;;;;;;;;4994412;28;20463;-60
2023/05/06 03:50:43;;;;;;;38.73;23.50;;;;;;;;;;4994711;28;20432;-60
2023/05/06 03:53:09;;;;;;;35.30;23.67;;;;;;;;;;4994185;28;20896;-60
2023/05/06 03:55:35;;;;;;;46.37;23.37;;;;;;;;;;4993959;28;20765;-62
2023/05/06 03:58:01;;;;;;;32.07;22.30;;;;;;;;;;4993882;28;20482;-59
2023/05/06 04:00:27;;;;;;;32.40;21.90;;;;;;;;;;4994103;28;20436;-60
2023/05/06 04:02:53;;;;;;;30.33;21.40;;;;;;;;;;4993253;28;20439;-61
2023/05/06 04:05:19;;;;;;;28.93;19.80;;;;;;;;;;4994370;28;20417;-60
2023/05/06 04:07:45;;;;;;;33.60;21.97;;;;;;;;;;4994296;28;20468;-59
2023/05/06 04:10:11;;;;;;;30.23;21.50;;;;;;;;;;4994117;28;20423;-60
2023/05/06 04:12:37;;;;;;;45.77;26.53;;;;;;;;;;4993900;28;20923;-60
2023/05/06 04:15:03;;;;;;;59.23;27.43;;;;;;;;;;4994093;28;20427;-60
2023/05/06 04:17:31;;;;;;;38.97;26.67;;;;;;;;;;4994145;28;21067;-60
2023/05/06 04:19:57;;;;;;;42.77;26.97;;;;;;;;;;4994324;28;20550;-60
2023/05/06 04:22:23;;;;;;;70.90;25.90;;;;;;;;;;4994071;28;20904;-60
2023/05/06 04:24:49;;;;;;;44.33;25.07;;;;;;;;;;4993862;28;20468;-60
2023/05/06 04:27:15;;;;;;;63.47;27.53;;;;;;;;;;4993744;28;20416;-60
2023/05/06 04:29:41;;;;;;;53.10;24.13;;;;;;;;;;4993915;28;21021;-60
2023/05/06 04:32:12;;;;;;;44.13;20.00;;;;;;;;;;4993820;28;20408;-60
2023/05/06 04:34:38;;;;;;;37.50;17.93;;;;;;;;;;4993611;28;20779;-60
2023/05/06 04:37:04;;;;;;;30.40;19.60;;;;;;;;;;4993613;28;20470;-60
2023/05/06 04:39:30;;;;;;;47.17;21.80;;;;;;;;;;4992673;28;20444;-60
2023/05/06 04:41:59;;;;;;;45.43;20.00;;;;;;;;;;4993754;28;20421;-60
2023/05/06 04:44:25;;;;;;;44.63;21.13;;;;;;;;;;4993463;28;20498;-61
2023/05/06 04:46:51;;;;;;;46.57;20.83;;;;;;;;;;4993395;28;20417;-59
2023/05/06 04:49:16;;;;;;;22.07;17.77;;;;;;;;;;4993736;28;20507;-59
2023/05/06 04:51:45;;;;;;;30.67;19.20;;;;;;;;;;4993346;28;20432;-60
2023/05/06 04:54:11;;;;;;;21.27;17.23;;;;;;;;;;4993319;28;20447;-60
2023/05/06 04:56:37;;;;;;;66.60;19.80;;;;;;;;;;4993338;28;20425;-60
2023/05/06 04:59:03;;;;;;;40.70;18.80;;;;;;;;;;4993290;28;20440;-60
2023/05/06 05:01:29;;;;;;;20.30;17.57;;;;;;;;;;4993154;28;20455;-60
2023/05/06 05:03:58;;;;;;;55.87;17.60;;;;;;;;;;4993283;28;20517;-60
2023/05/06 05:06:24;;;;;;;21.80;16.87;;;;;;;;;;4993514;28;20462;-60
2023/05/06 05:08:50;;;;;;;28.53;16.43;;;;;;;;;;4991987;28;20502;-61
2023/05/06 05:11:16;;;;;;;17.67;15.77;;;;;;;;;;4992918;28;20424;-60
2023/05/06 05:13:45;;;;;;;16.30;13.30;;;;;;;;;;4992723;28;20420;-61
2023/05/06 05:16:11;;;;;;;17.10;14.60;;;;;;;;;;4992687;28;20424;-60
2023/05/06 05:18:37;;;;;;;15.57;13.97;;;;;;;;;;4993177;28;20472;-61
2023/05/06 05:21:03;;;;;;;14.30;13.00;;;;;;;;;;4993354;28;20756;-61
2023/05/06 05:23:29;;;;;;;13.20;11.87;;;;;;;;;;4993498;28;20401;-60
2023/05/06 05:25:55;;;;;;;15.43;12.87;;;;;;;;;;4993296;28;20428;-60
2023/05/06 05:28:21;;;;;;;12.20;11.00;;;;;;;;;;4991692;28;20424;-60
2023/05/06 05:30:47;;;;;;;15.90;12.50;;;;;;;;;;4993254;28;20440;-60
2023/05/06 05:33:13;;;;;;;13.07;11.80;;;;;;;;;;4993098;28;20779;-59
2023/05/06 05:35:39;;;;;;;11.03;10.03;;;;;;;;;;4993092;28;20435;-60
2023/05/06 05:38:04;;;;;;;10.30;9.50;;;;;;;;;;4992958;28;20870;-60
2023/05/06 05:40:30;;;;;;;11.20;10.20;;;;;;;;;;4992969;28;20483;-60
2023/05/06 05:42:56;;;;;;;10.93;9.80;;;;;;;;;;4993197;28;20435;-60
2023/05/06 05:45:22;;;;;;;11.97;10.50;;;;;;;;;;4992824;28;20463;-62
2023/05/06 05:47:49;;;;;;;15.50;11.67;;;;;;;;;;4991674;28;20516;-61
2023/05/06 05:50:15;;;;;;;10.93;9.93;;;;;;;;;;4993012;28;20428;-61
2023/05/06 05:52:41;;;;;;;20.10;17.70;;;;;;;;;;4993219;28;20524;-61
2023/05/06 05:55:07;;;;;;;23.10;17.90;;;;;;;;;;4992642;28;20906;-62
2023/05/06 05:57:33;;;;;;;14.00;12.60;;;;;;;;;;4992359;28;20993;-62
2023/05/06 05:59:59;;;;;;;19.53;15.77;;;;;;;;;;4992503;28;20449;-61
2023/05/06 06:02:26;;;;;;;22.67;17.63;;;;;;;;;;4993329;28;20543;-61
2023/05/06 06:04:52;;;;;;;23.07;17.87;;;;;;;;;;4991538;28;20844;-61
2023/05/06 06:07:18;;;;;;;20.47;16.57;;;;;;;;;;4992718;28;20410;-61
2023/05/06 06:09:45;;;;;;;23.80;17.40;;;;;;;;;;4992993;28;20476;-61
2023/05/06 06:12:11;;;;;;;22.33;17.27;;;;;;;;;;4992953;28;20423;-61
2023/05/06 06:14:40;;;;;;;26.03;19.17;;;;;;;;;;4991465;28;20971;-61
2023/05/06 06:17:08;;;;;;;24.87;18.13;;;;;;;;;;4992496;28;20479;-62
2023/05/06 06:19:34;;;;;;;23.30;17.70;;;;;;;;;;4992488;28;20444;-62
2023/05/06 06:22:00;;;;;;;31.43;22.50;;;;;;;;;;4991958;28;20423;-61
2023/05/06 06:24:26;;;;;;;30.87;21.37;;;;;;;;;;4992522;28;20425;-62
2023/05/06 06:26:52;;;;;;;32.03;23.03;;;;;;;;;;4995464;28;20911;-61
2023/05/06 06:29:18;;;;;;;35.03;23.57;;;;;;;;;;4996797;28;20483;-62
2023/05/06 06:31:44;;;;;;;27.03;19.33;;;;;;;;;;4996819;28;20431;-62
2023/05/06 06:34:11;;;;;;;30.37;22.00;;;;;;;;;;4996076;28;20930;-62
2023/05/06 06:36:39;;;;;;;28.93;22.80;;;;;;;;;;4995693;28;20423;-61
2023/05/06 06:39:07;;;;;;;27.43;20.57;;;;;;;;;;4996205;28;20473;-61
2023/05/06 06:41:33;;;;;;;25.83;20.57;;;;;;;;;;4996032;28;20420;-62
2023/05/06 06:43:59;;;;;;;25.97;19.90;;;;;;;;;;4995852;28;20442;-61
2023/05/06 06:46:25;;;;;;;23.13;17.70;;;;;;;;;;4995805;28;20523;-62
2023/05/06 06:48:51;;;;;;;18.00;16.10;;;;;;;;;;4996029;28;20460;-62
2023/05/06 06:51:17;;;;;;;25.07;17.03;;;;;;;;;;4996036;28;20449;-62
2023/05/06 06:53:43;;;;;;;19.13;15.43;;;;;;;;;;4996294;28;20424;-63
2023/05/06 06:56:12;;;;;;;19.90;17.60;;;;;;;;;;4996233;28;20479;-62
2023/05/06 06:58:38;;;;;;;19.13;16.70;;;;;;;;;;4995865;28;20848;-62
2023/05/06 07:01:07;;;;;;;18.83;16.20;;;;;;;;;;4995787;28;20436;-63
2023/05/06 07:03:33;;;;;;;17.03;14.07;;;;;;;;;;4995679;28;20447;-63
2023/05/06 07:05:59;;;;;;;15.20;13.60;;;;;;;;;;4995568;28;20418;-62
2023/05/06 07:08:25;;;;;;;20.67;17.83;;;;;;;;;;4995778;28;20447;-61
2023/05/06 07:10:51;;;;;;;23.37;18.37;;;;;;;;;;4995345;28;20457;-61
2023/05/06 07:13:19;;;;;;;28.03;21.97;;;;;;;;;;4997817;28;20417;-61
2023/05/06 07:15:45;;;;;;;20.53;17.63;;;;;;;;;;4995790;28;20456;-64
2023/05/06 07:18:11;;;;;;;21.47;17.90;;;;;;;;;;4994125;28;20480;-60
2023/05/06 07:20:37;;;;;;;22.17;19.83;;;;;;;;;;4995397;28;20487;-60
2023/05/06 07:23:03;;;;;;;26.10;19.23;;;;;;;;;;4995573;28;20815;-60
2023/05/06 07:25:30;;;;;;;28.97;20.37;;;;;;;;;;4996056;28;20464;-60
2023/05/06 07:27:56;;;;;;;29.23;21.70;;;;;;;;;;4995210;28;20422;-60
2023/05/06 07:30:24;;;;;;;21.17;18.50;;;;;;;;;;4995392;28;20518;-60
2023/05/06 07:32:50;;;;;;;26.37;20.27;;;;;;;;;;4994844;28;20905;-61
2023/05/06 07:35:19;;;;;;;23.50;19.70;;;;;;;;;;4994946;28;21060;-61
2023/05/06 07:37:45;;;;;;;21.50;19.20;;;;;;;;;;4994264;28;20496;-60
2023/05/06 07:40:11;;;;;;;18.90;16.10;;;;;;;;;;4995178;28;20835;-61
2023/05/06 07:42:37;;;;;;;19.93;17.93;;;;;;;;;;4995049;28;20465;-60
2023/05/06 07:45:06;;;;;;;27.10;19.43;;;;;;;;;;4994885;28;20420;-61
2023/05/06 07:47:32;;;;;;;34.73;29.40;;;;;;;;;;4994563;28;20418;-61
2023/05/06 07:50:01;;;;;;;29.90;24.70;;;;;;;;;;4994843;28;20897;-61
2023/05/06 07:52:27;;;;;;;19.80;17.77;;;;;;;;;;4994874;28;20557;-61
2023/05/06 07:54:53;;;;;;;20.90;17.00;;;;;;;;;;4994784;28;20470;-61
2023/05/06 07:57:19;;;;;;;16.77;15.10;;;;;;;;;;4994765;28;20472;-61
2023/05/06 07:59:49;;;;;;;17.60;15.93;;;;;;;;;;4994351;28;20440;-61
2023/05/06 08:02:17;;;;;;;15.47;13.90;;;;;;;;;;4994782;28;20754;-61
2023/05/06 08:04:46;;;;;;;15.70;14.17;;;;;;;;;;4994544;28;20409;-61
2023/05/06 08:07:13;;;;;;;17.50;12.37;;;;;;;;;;4994625;28;20484;-61
2023/05/06 08:09:39;;;;;;;13.23;12.03;;;;;;;;;;4994114;28;20421;-61
2023/05/06 08:12:06;;;;;;;17.13;12.70;;;;;;;;;;4992977;28;20860;-61
2023/05/06 08:14:32;;;;;;;13.70;12.37;;;;;;;;;;4993927;28;20430;-60
2023/05/06 08:16:58;;;;;;;18.23;12.70;;;;;;;;;;4993964;28;20966;-60
2023/05/06 08:19:25;;;;;;;11.47;10.47;;;;;;;;;;4994342;28;20414;-60
2023/05/06 08:21:51;;;;;;;10.13;9.33;;;;;;;;;;4994192;28;20435;-61
2023/05/06 08:24:17;;;;;;;13.60;9.80;;;;;;;;;;4994388;28;20431;-60
2023/05/06 08:26:43;;;;;;;9.63;8.80;;;;;;;;;;4993797;28;20460;-61
2023/05/06 08:29:09;;;;;;;11.57;9.47;;;;;;;;;;4993922;28;20921;-61
2023/05/06 08:31:35;;;;;;;10.23;9.23;;;;;;;;;;4993918;28;20423;-61
2023/05/06 08:34:01;;;;;;;9.83;9.03;;;;;;;;;;4993751;28;20481;-61
2023/05/06 08:36:27;;;;;;;9.27;8.57;;;;;;;;;;4993659;28;20973;-61
2023/05/06 08:38:53;;;;;;;9.77;8.90;;;;;;;;;;4993744;28;20458;-61
2023/05/06 08:41:24;;;;;;;7.63;7.13;;;;;;;;;;4993664;28;20446;-61
2023/05/06 08:43:50;;;;;;;8.83;8.13;;;;;;;;;;4993744;28;20789;-61
2023/05/06 08:46:17;;;;;;;11.30;7.77;;;;;;;;;;4993563;28;20462;-61
2023/05/06 08:48:45;;;;;;;7.30;6.80;;;;;;;;;;4993567;28;20501;-61
2023/05/06 08:51:13;;;;;;;6.73;6.33;;;;;;;;;;4993734;28;20526;-61
2023/05/06 08:53:41;;;;;;;6.83;6.43;;;;;;;;;;4993730;28;20496;-61
2023/05/06 08:56:09;;;;;;;7.63;6.80;;;;;;;;;;4993943;28;20451;-61
2023/05/06 08:58:37;;;;;;;6.40;5.77;;;;;;;;;;4993704;28;20453;-61
2023/05/06 09:01:04;;;;;;;6.00;5.70;;;;;;;;;;4993426;28;20452;-61
2023/05/06 09:03:30;;;;;;;5.50;4.97;;;;;;;;;;4992118;28;20435;-61
2023/05/06 09:05:57;;;;;;;5.90;5.50;;;;;;;;;;4993292;28;20409;-60
2023/05/06 09:08:23;;;;;;;5.90;5.43;;;;;;;;;;4992307;28;20764;-61
2023/05/06 09:10:49;;;;;;;5.90;5.50;;;;;;;;;;4993406;28;20478;-61
2023/05/06 09:13:16;;;;;;;4.93;4.70;;;;;;;;;;4993532;28;20413;-61
2023/05/06 09:15:42;;;;;;;4.90;4.43;;;;;;;;;;4993384;28;20445;-61
2023/05/06 09:18:08;;;;;;;26.23;21.90;;;;;;;;;;4991958;28;20469;-61
2023/05/06 09:20:40;;;;;;;6.40;6.00;;;;;;;;;;4993556;28;20414;-61
2023/05/06 09:23:08;;;;;;;4.83;4.60;;;;;;;;;;4991988;28;20493;-61
2023/05/06 09:25:37;;;;;;;6.37;4.20;;;;;;;;;;4991888;28;20487;-61
2023/05/06 09:28:06;;;;;;;4.50;4.10;;;;;;;;;;4993097;28;20439;-61
2023/05/06 09:30:32;;;;;;;3.97;3.77;;;;;;;;;;4993308;28;20424;-61
2023/05/06 09:32:58;;;;;;;6.80;4.43;;;;;;;;;;4993162;28;20510;-61
2023/05/06 09:35:28;;;;;;;3.37;3.27;;;;;;;;;;4993174;28;20411;-61
2023/05/06 09:37:54;;;;;;;4.77;4.13;;;;;;;;;;4993190;28;20539;-61
2023/05/06 09:40:23;;;;;;;3.60;3.40;;;;;;;;;;4992951;28;20416;-61
2023/05/06 09:42:50;;;;;;;4.00;2.93;;;;;;;;;;4993050;28;20857;-61
2023/05/06 09:45:19;;;;;;;3.07;2.97;;;;;;;;;;4993122;28;20420;-61
2023/05/06 09:47:48;;;;;;;5.37;4.27;;;;;;;;;;4991791;28;20446;-61
2023/05/06 09:50:15;;;;;;;4.07;3.80;;;;;;;;;;4992329;28;20552;-61
2023/05/06 09:52:44;;;;;;;3.73;3.53;;;;;;;;;;4992634;28;20810;-61
2023/05/06 09:55:10;;;;;;;6.37;3.70;;;;;;;;;;4990808;28;20438;-61
2023/05/06 09:57:41;;;;;;;3.77;3.53;;;;;;;;;;4992436;28;20816;-61
2023/05/06 10:00:10;;;;;;;3.53;3.20;;;;;;;;;;4992897;28;20855;-61
2023/05/06 10:02:39;;;;;;;2.87;2.70;;;;;;;;;;4996008;28;20440;-61
2023/05/06 10:05:06;;;;;;;3.20;2.90;;;;;;;;;;4996420;28;20447;-61
2023/05/06 10:07:32;;;;;;;3.00;2.90;;;;;;;;;;4995447;28;20532;-61
2023/05/06 10:09:58;;;;;;;3.47;3.17;;;;;;;;;;4996345;28;20422;-61
2023/05/06 10:12:27;;;;;;;3.93;3.03;;;;;;;;;;4996342;28;20444;-61
2023/05/06 10:14:53;;;;;;;3.60;3.30;;;;;;;;;;4996513;28;20899;-61
2023/05/06 10:17:23;;;;;;;3.30;3.10;;;;;;;;;;4995258;28;20474;-62
2023/05/06 10:19:49;;;;;;;3.87;3.00;;;;;;;;;;4996235;28;20432;-61
2023/05/06 10:22:21;;;;;;;3.97;3.60;;;;;;;;;;4995858;28;20899;-62
2023/05/06 10:24:54;;;;;;;4.60;4.33;;;;;;;;;;4996789;28;20507;-62
2023/05/06 10:27:23;;;;;;;3.90;2.83;;;;;;;;;;4995721;28;20418;-61
2023/05/06 10:29:50;;;;;;;2.90;2.70;;;;;;;;;;4996274;28;20479;-64
2023/05/06 10:32:21;;;;;;;3.50;3.20;;;;;;;;;;4994649;28;20815;-63
2023/05/06 10:34:53;;;;;;;4.40;4.00;;;;;;;;;;4995024;28;20475;-63
2023/05/06 10:37:20;;;;;;;2.80;2.60;;;;;;;;;;4996066;28;20872;-63
2023/05/06 10:39:46;;;;;;;4.40;3.40;;;;;;;;;;4996013;28;20896;-63
2023/05/06 10:42:14;;;;;;;3.70;3.50;;;;;;;;;;4995868;28;20511;-63
2023/05/06 10:44:56;;;;;;;3.83;2.90;;;;;;;;;;4995981;28;20429;-63
2023/05/06 10:47:22;;;;;;;3.40;3.30;;;;;;;;;;4995640;28;20421;-62
2023/05/06 10:50:07;;;;;;;3.13;2.73;;;;;;;;;;4995798;28;20930;-63
2023/05/06 10:52:45;;;;;;;3.03;2.43;;;;;;;;;;4995444;28;20950;-63
2023/05/06 10:55:25;;;;;;;7.20;2.17;;;;;;;;;;4996050;28;20419;-61
2023/05/06 10:57:54;;;;;;;2.50;2.40;;;;;;;;;;4995533;28;20484;-64
2023/05/06 11:00:20;;;;;;;2.83;2.70;;;;;;;;;;4995772;28;20950;-64
2023/05/06 11:02:50;;;;;;;2.00;2.00;;;;;;;;;;4995604;28;20437;-64
2023/05/06 11:05:16;;;;;;;5.47;2.53;;;;;;;;;;4995505;28;20414;-64
2023/05/06 11:07:42;;;;;;;2.20;1.77;;;;;;;;;;4995508;28;20441;-64
2023/05/06 11:10:11;;;;;;;2.40;1.80;;;;;;;;;;4995392;28;20865;-64
2023/05/06 11:12:47;;;;;;;1.93;1.83;;;;;;;;;;4994080;28;20494;-64
2023/05/06 11:15:32;;;;;;;1.93;1.83;;;;;;;;;;4995319;28;20843;-64
2023/05/06 11:17:58;;;;;;;1.67;1.67;;;;;;;;;;4995364;28;20503;-64
2023/05/06 11:20:25;;;;;;;2.97;1.93;;;;;;;;;;4995513;28;20476;-64
2023/05/06 11:22:51;;;;;;;1.93;1.70;;;;;;;;;;4995428;28;20873;-64
2023/05/06 11:25:36;;;;;;;1.90;1.80;;;;;;;;;;4995081;28;20449;-64
2023/05/06 11:28:06;;;;;;;1.87;1.77;;;;;;;;;;4995284;28;20452;-64
2023/05/06 11:30:32;;;;;;;1.50;1.40;;;;;;;;;;4993842;28;20440;-64
2023/05/06 11:33:01;;;;;;;1.20;1.20;;;;;;;;;;4995200;28;20528;-64
2023/05/06 11:35:33;;;;;;;1.13;1.13;;;;;;;;;;4995020;28;20473;-64
2023/05/06 11:37:59;;;;;;;1.40;1.40;;;;;;;;;;4993760;28;20482;-65
2023/05/06 11:40:28;;;;;;;1.33;1.20;;;;;;;;;;4994819;28;20406;-64
2023/05/06 11:42:55;;;;;;;1.50;1.40;;;;;;;;;;4994973;28;20479;-64
2023/05/06 11:45:23;;;;;;;2.00;1.43;;;;;;;;;;4995026;28;20496;-64
2023/05/06 11:47:54;;;;;;;2.37;1.30;;;;;;;;;;4993686;28;20495;-64
2023/05/06 11:50:21;;;;;;;2.97;1.70;;;;;;;;;;4994992;28;20486;-64
2023/05/06 11:52:47;;;;;;;2.00;1.17;;;;;;;;;;4994686;28;20448;-63
2023/05/06 11:55:13;;;;;;;1.60;1.50;;;;;;;;;;4994680;28;20504;-64
2023/05/06 11:57:43;;;;;;;3.10;1.63;;;;;;;;;;4993160;28;20465;-64
2023/05/06 12:00:09;;;;;;;2.30;1.60;;;;;;;;;;4994544;28;20450;-64
2023/05/06 12:02:35;;;;;;;1.37;1.27;;;;;;;;;;4994589;28;20416;-64
2023/05/06 12:05:02;;;;;;;1.50;1.50;;;;;;;;;;4994734;28;20776;-63
2023/05/06 12:07:28;;;;;;;3.10;1.47;;;;;;;;;;4994612;28;20425;-64
2023/05/06 12:09:54;;;;;;;1.90;1.80;;;;;;;;;;4994612;28;20432;-62
2023/05/06 12:12:21;;;;;;;1.57;1.57;;;;;;;;;;4994250;28;20423;-64
2023/05/06 12:14:50;;;;;;;1.30;1.30;;;;;;;;;;4994486;28;20417;-66
2023/05/06 12:17:16;;;;;;;2.10;1.17;;;;;;;;;;4993994;28;20466;-65
2023/05/06 12:19:42;;;;;;;1.30;1.20;;;;;;;;;;4993847;28;20412;-64
2023/05/06 12:22:20;;;;;;;1.37;1.37;;;;;;;;;;4994257;28;20860;-62
2023/05/06 12:24:47;;;;;;;3.33;1.40;;;;;;;;;;4993841;28;20800;-64
2023/05/06 12:27:13;;;;;;;1.27;1.20;;;;;;;;;;4994114;28;20462;-65
2023/05/06 12:29:39;;;;;;;1.27;1.17;;;;;;;;;;4994111;28;20798;-65
2023/05/06 12:32:08;;;;;;;1.50;1.40;;;;;;;;;;4994489;28;20498;-66
2023/05/06 12:34:41;;;;;;;1.40;1.30;;;;;;;;;;4993980;28;20493;-65
2023/05/06 12:37:07;;;;;;;2.57;1.60;;;;;;;;;;4993843;28;20461;-66
2023/05/06 12:39:34;;;;;;;1.67;1.63;;;;;;;;;;4993875;28;20441;-65
2023/05/06 12:42:03;;;;;;;1.43;1.30;;;;;;;;;;4993985;28;20914;-65
2023/05/06 12:44:31;;;;;;;1.20;1.20;;;;;;;;;;4993873;28;20850;-65
2023/05/06 12:46:59;;;;;;;1.70;1.60;;;;;;;;;;4993812;28;20428;-65
2023/05/06 12:49:25;;;;;;;1.13;1.13;;;;;;;;;;4992562;28;20499;-65
2023/05/06 12:52:11;;;;;;;2.87;1.30;;;;;;;;;;4993778;28;20425;-65
2023/05/06 12:54:37;;;;;;;1.93;0.90;;;;;;;;;;4993094;28;20449;-65
2023/05/06 12:57:04;;;;;;;4.10;1.70;;;;;;;;;;4993658;28;20417;-65
2023/05/06 12:59:30;;;;;;;1.33;1.33;;;;;;;;;;4993682;28;20461;-65
2023/05/06 13:01:59;;;;;;;8.47;7.97;;;;;;;;;;4993233;28;20473;-65
2023/05/06 13:04:26;;;;;;;6.80;6.37;;;;;;;;;;4993271;28;20493;-64
2023/05/06 13:06:52;;;;;;;3.07;1.50;;;;;;;;;;4993548;28;20797;-64
2023/05/06 13:09:20;;;;;;;1.37;1.27;;;;;;;;;;4993294;28;20934;-64
2023/05/06 13:11:46;;;;;;;11.00;10.00;;;;;;;;;;4993376;28;20420;-64
2023/05/06 13:14:12;;;;;;;2.60;2.00;;;;;;;;;;4993460;28;20443;-64
2023/05/06 13:16:38;;;;;;;2.57;1.43;;;;;;;;;;4993498;28;20412;-64
2023/05/06 13:19:07;;;;;;;1.97;1.67;;;;;;;;;;4993225;28;20990;-64
2023/05/06 13:21:33;;;;;;;1.73;1.63;;;;;;;;;;4993563;28;20532;-64
2023/05/06 13:23:59;;;;;;;3.50;1.63;;;;;;;;;;4992793;28;20470;-63
2023/05/06 13:26:25;;;;;;;1.40;1.30;;;;;;;;;;4993407;28;20402;-63
2023/05/06 13:28:51;;;;;;;1.93;1.27;;;;;;;;;;4993241;28;20430;-63
2023/05/06 13:31:17;;;;;;;2.47;1.50;;;;;;;;;;4993442;28;20403;-63
2023/05/06 13:33:43;;;;;;;1.80;1.70;;;;;;;;;;4993072;28;20425;-63
2023/05/06 13:36:09;;;;;;;1.50;1.40;;;;;;;;;;4992542;28;20405;-63
2023/05/06 13:38:35;;;;;;;1.70;1.60;;;;;;;;;;4993105;28;20864;-63
2023/05/06 13:41:01;;;;;;;2.43;1.40;;;;;;;;;;4993061;28;20425;-64
2023/05/06 13:43:30;;;;;;;1.30;1.30;;;;;;;;;;4993013;28;20417;-63
2023/05/06 13:45:56;;;;;;;1.37;1.27;;;;;;;;;;4993084;28;20842;-64
2023/05/06 13:48:22;;;;;;;1.67;1.57;;;;;;;;;;4992988;28;20422;-63
2023/05/06 13:50:48;;;;;;;2.10;1.50;;;;;;;;;;4992910;28;20550;-64
2023/05/06 13:53:14;;;;;;;3.43;1.50;;;;;;;;;;4992813;28;20417;-63
2023/05/06 13:55:43;;;;;;;1.67;1.57;;;;;;;;;;4992926;28;20394;-62
2023/05/06 13:58:11;;;;;;;1.30;1.30;;;;;;;;;;4992870;28;20538;-61
2023/05/06 14:00:37;;;;;;;1.30;1.13;;;;;;;;;;4992883;28;20511;-61
2023/05/06 14:03:05;;;;;;;45.10;40.47;;;;;;;;;;4992661;28;20421;-62
2023/05/06 14:05:31;;;;;;;1.70;1.60;;;;;;;;;;4991754;28;20505;-62
2023/05/06 14:08:00;;;;;;;4.80;1.67;;;;;;;;;;4993007;28;20463;-62
2023/05/06 14:10:26;;;;;;;1.60;1.50;;;;;;;;;;4992922;28;20439;-61
2023/05/06 14:12:52;;;;;;;1.93;1.50;;;;;;;;;;4992841;28;20469;-61
2023/05/06 14:15:18;;;;;;;4.43;1.40;;;;;;;;;;4992695;28;20510;-61
2023/05/06 14:17:44;;;;;;;2.20;1.70;;;;;;;;;;4992728;28;20461;-63
2023/05/06 14:20:10;;;;;;;1.47;1.37;;;;;;;;;;4992864;28;20804;-62
2023/05/06 14:22:37;;;;;;;1.10;1.00;;;;;;;;;;4992629;28;20422;-63
2023/05/06 14:25:03;;;;;;;6.57;1.43;;;;;;;;;;4992650;28;20515;-62
2023/05/06 14:27:29;;;;;;;1.20;1.20;;;;;;;;;;4992665;28;20418;-62
2023/05/06 14:29:55;;;;;;;3.17;1.17;;;;;;;;;;4992748;28;20417;-62
2023/05/06 14:32:21;;;;;;;1.20;1.20;;;;;;;;;;4992735;28;20468;-63